createdAt,value
2022-08-22T00:02:09.045Z,17.80
2022-08-22T00:03:07.477Z,18.00
2022-08-22T00:05:06.363Z,17.70
2022-08-22T00:08:07.596Z,17.70
2022-08-22T00:11:05.551Z,17.70
2022-08-22T00:14:02.324Z,17.70
2022-08-22T00:17:03.362Z,17.70
2022-08-22T00:20:05.373Z,17.70
2022-08-22T00:23:02.154Z,17.60
2022-08-22T00:26:02.529Z,17.60
2022-08-22T00:29:02.721Z,17.60
2022-08-22T00:32:02.516Z,17.50
2022-08-22T00:34:59.646Z,17.50
2022-08-22T00:38:02.625Z,17.50
2022-08-22T00:41:03.598Z,17.50
2022-08-22T00:44:20.430Z,17.50
2022-08-22T00:47:47.141Z,17.50
2022-08-22T00:51:09.724Z,17.40
2022-08-22T00:54:17.344Z,17.40
2022-08-22T00:57:29.501Z,17.40
2022-08-22T01:00:22.491Z,17.40
2022-08-22T01:03:47.768Z,17.30
2022-08-22T01:06:48.923Z,17.30
2022-08-22T01:09:55.052Z,17.30
2022-08-22T01:13:02.754Z,17.20
2022-08-22T01:16:10.669Z,17.20
2022-08-22T01:19:40.229Z,17.20
2022-08-22T01:23:26.561Z,17.20
2022-08-22T01:27:10.701Z,17.20
2022-08-22T01:30:23.506Z,17.20
2022-08-22T01:34:13.938Z,17.20
2022-08-22T01:37:30.401Z,17.20
2022-08-22T01:41:13.069Z,17.10
2022-08-22T01:44:38.363Z,17.10
2022-08-22T01:47:37.581Z,17.10
2022-08-22T01:50:35.930Z,17.10
2022-08-22T01:53:42.036Z,17.10
2022-08-22T01:56:37.195Z,17.10
2022-08-22T01:59:42.258Z,17.00
2022-08-22T02:02:54.688Z,17.00
2022-08-22T02:05:54.268Z,17.00
2022-08-22T02:09:02.818Z,17.00
2022-08-22T02:11:57.992Z,17.00
2022-08-22T02:15:00.054Z,17.00
2022-08-22T02:18:14.497Z,17.00
2022-08-22T02:21:13.614Z,17.00
2022-08-22T02:24:18.192Z,17.00
2022-08-22T02:27:17.332Z,17.00
2022-08-22T02:30:11.742Z,17.00
2022-08-22T02:33:10.498Z,17.00
2022-08-22T02:36:07.590Z,17.00
2022-08-22T02:39:13.621Z,17.00
2022-08-22T02:42:17.968Z,17.00
2022-08-22T02:45:23.014Z,17.00
2022-08-22T02:48:27.731Z,17.00
2022-08-22T02:51:29.104Z,17.00
2022-08-22T02:54:37.190Z,17.00
2022-08-22T02:57:39.706Z,17.00
2022-08-22T03:00:33.389Z,17.00
2022-08-22T03:03:26.252Z,17.00
2022-08-22T03:06:38.489Z,17.00
2022-08-22T03:09:34.989Z,17.00
2022-08-22T03:12:33.399Z,17.00
2022-08-22T03:15:31.829Z,17.00
2022-08-22T03:18:28.147Z,17.10
2022-08-22T03:21:27.580Z,17.10
2022-08-22T03:24:24.169Z,17.10
2022-08-22T03:27:32.614Z,17.10
2022-08-22T03:30:32.426Z,17.10
2022-08-22T03:33:25.396Z,17.10
2022-08-22T03:36:28.607Z,17.10
2022-08-22T03:39:26.246Z,17.10
2022-08-22T03:42:56.953Z,17.10
2022-08-22T03:46:37.590Z,17.10
2022-08-22T03:50:11.230Z,17.10
2022-08-22T03:53:49.618Z,17.10
2022-08-22T03:57:31.366Z,17.10
2022-08-22T04:00:50.264Z,17.10
2022-08-22T04:04:58.181Z,17.10
2022-08-22T04:08:13.717Z,17.10
2022-08-22T04:11:33.314Z,17.10
2022-08-22T04:15:24.891Z,17.10
2022-08-22T04:19:00.707Z,17.10
2022-08-22T04:22:22.965Z,17.10
2022-08-22T04:25:16.909Z,17.10
2022-08-22T04:28:16.890Z,17.00
2022-08-22T04:31:12.592Z,17.10
2022-08-22T04:34:07.543Z,17.10
2022-08-22T04:37:07.207Z,17.10
2022-08-22T04:40:03.064Z,17.10
2022-08-22T04:42:59.428Z,17.20
2022-08-22T04:45:54.214Z,17.20
2022-08-22T04:48:52.702Z,17.20
2022-08-22T04:51:49.021Z,17.20
2022-08-22T04:54:53.339Z,17.30
2022-08-22T04:57:55.669Z,17.30
2022-08-22T05:00:56.566Z,17.40
2022-08-22T05:03:55.425Z,17.40
2022-08-22T05:06:52.168Z,17.50
2022-08-22T05:09:50.092Z,17.50
2022-08-22T05:12:44.904Z,17.60
2022-08-22T05:15:38.405Z,17.70
2022-08-22T05:18:34.456Z,17.70
2022-08-22T05:21:32.465Z,17.80
2022-08-22T05:24:28.198Z,17.90
2022-08-22T05:27:26.493Z,18.00
2022-08-22T05:30:26.093Z,18.00
2022-08-22T05:33:24.438Z,18.10
2022-08-22T05:36:18.565Z,18.20
2022-08-22T05:39:14.596Z,18.30
2022-08-22T05:42:06.897Z,18.40
2022-08-22T05:44:57.316Z,18.50
2022-08-22T05:47:52.213Z,18.60
2022-08-22T05:50:50.413Z,18.70
2022-08-22T05:53:43.330Z,18.80
2022-08-22T05:56:39.386Z,19.00
2022-08-22T05:59:35.219Z,19.10
2022-08-22T06:02:40.688Z,19.30
2022-08-22T06:05:34.940Z,19.40
2022-08-22T06:08:32.375Z,19.60
2022-08-22T06:11:33.741Z,19.80
2022-08-22T06:14:39.860Z,20.00
2022-08-22T06:17:37.022Z,20.30
2022-08-22T06:20:39.291Z,20.60
2022-08-22T06:23:38.068Z,20.90
2022-08-22T06:26:34.704Z,21.20
2022-08-22T06:29:34.700Z,21.60
2022-08-22T06:32:52.883Z,22.10
2022-08-22T06:36:01.005Z,22.50
2022-08-22T06:39:01.373Z,23.00
2022-08-22T06:41:54.914Z,23.60
2022-08-22T06:44:51.203Z,24.00
2022-08-22T06:47:44.075Z,24.40
2022-08-22T06:50:43.148Z,24.80
2022-08-22T06:53:39.595Z,25.20
2022-08-22T06:56:46.310Z,25.60
2022-08-22T06:59:39.573Z,25.90
2022-08-22T07:02:38.298Z,26.20
2022-08-22T07:05:31.283Z,26.50
2022-08-22T07:08:24.574Z,26.80
2022-08-22T07:11:21.835Z,27.00
2022-08-22T07:14:17.286Z,27.20
2022-08-22T07:17:09.604Z,27.50
2022-08-22T07:20:07.495Z,27.60
2022-08-22T07:23:00.708Z,27.80
2022-08-22T07:25:58.080Z,28.00
2022-08-22T07:28:58.630Z,28.10
2022-08-22T07:31:55.730Z,28.30
2022-08-22T07:35:05.834Z,28.40
2022-08-22T07:38:13.948Z,28.60
2022-08-22T07:41:14.299Z,28.80
2022-08-22T07:44:15.467Z,28.90
2022-08-22T07:47:09.177Z,29.10
2022-08-22T07:50:07.072Z,29.30
2022-08-22T07:53:06.249Z,29.50
2022-08-22T07:55:58.192Z,29.80
2022-08-22T07:58:53.957Z,30.00
2022-08-22T08:01:50.010Z,30.20
2022-08-22T08:04:41.980Z,30.50
2022-08-22T08:07:32.299Z,30.90
2022-08-22T08:10:28.513Z,31.20
2022-08-22T08:13:27.616Z,31.60
2022-08-22T08:16:21.795Z,32.10
2022-08-22T08:19:13.430Z,32.60
2022-08-22T08:22:04.841Z,33.00
2022-08-22T08:24:57.665Z,33.40
2022-08-22T08:28:06.169Z,33.80
2022-08-22T08:31:08.302Z,34.10
2022-08-22T08:34:05.762Z,34.50
2022-08-22T08:37:01.189Z,34.90
2022-08-22T08:39:55.690Z,35.30
2022-08-22T08:43:35.002Z,35.70
2022-08-22T08:46:59.937Z,36.20
2022-08-22T08:50:24.275Z,36.70
2022-08-22T08:53:56.842Z,37.00
2022-08-22T08:56:57.311Z,37.20
2022-08-22T09:00:02.600Z,37.10
2022-08-22T09:03:07.142Z,36.90
2022-08-22T09:06:15.310Z,36.70
2022-08-22T09:09:39.383Z,36.40
2022-08-22T09:13:12.298Z,36.20
2022-08-22T09:16:36.737Z,36.00
2022-08-22T09:20:28.391Z,35.90
2022-08-22T09:24:05.566Z,35.80
2022-08-22T09:26:59.092Z,35.70
2022-08-22T09:30:05.002Z,35.50
2022-08-22T09:33:03.732Z,35.30
2022-08-22T09:36:05.238Z,35.00
2022-08-22T09:39:20.148Z,34.70
2022-08-22T09:42:20.428Z,34.50
2022-08-22T09:45:52.982Z,34.20
2022-08-22T09:49:05.531Z,34.00
2022-08-22T09:52:14.378Z,33.80
2022-08-22T09:55:15.968Z,33.70
2022-08-22T09:58:19.848Z,33.60
2022-08-22T10:01:23.715Z,33.60
2022-08-22T10:04:56.362Z,33.50
2022-08-22T10:08:15.100Z,33.50
2022-08-22T10:11:33.748Z,33.60
2022-08-22T10:14:38.588Z,33.70
2022-08-22T10:17:36.751Z,33.80
2022-08-22T10:20:42.403Z,33.80
2022-08-22T10:23:42.182Z,33.80
2022-08-22T10:26:46.608Z,33.80
2022-08-22T10:29:56.250Z,33.80
2022-08-22T10:32:54.332Z,33.70
2022-08-22T10:36:01.076Z,33.80
2022-08-22T10:38:58.301Z,33.70
2022-08-22T10:42:06.109Z,33.60
2022-08-22T10:45:35.489Z,33.50
2022-08-22T10:48:37.698Z,33.40
2022-08-22T10:51:38.823Z,33.50
2022-08-22T10:54:44.821Z,33.50
2022-08-22T10:57:53.001Z,33.50
2022-08-22T11:00:50.502Z,33.50
2022-08-22T11:03:45.616Z,33.50
2022-08-22T11:06:47.249Z,33.40
2022-08-22T11:09:44.219Z,33.30
2022-08-22T11:12:53.343Z,33.30
2022-08-22T11:16:08.310Z,33.30
2022-08-22T11:19:16.712Z,33.30
2022-08-22T11:22:30.578Z,33.20
2022-08-22T11:25:38.429Z,33.00
2022-08-22T11:29:14.099Z,32.80
2022-08-22T11:32:16.226Z,32.70
2022-08-22T11:35:17.206Z,32.60
2022-08-22T11:38:32.095Z,32.50
2022-08-22T11:41:28.552Z,32.40
2022-08-22T11:44:22.732Z,32.10
2022-08-22T11:47:20.783Z,32.00
2022-08-22T11:50:29.693Z,31.80
2022-08-22T11:53:29.502Z,31.70
2022-08-22T11:56:27.532Z,31.50
2022-08-22T11:59:25.240Z,31.40
2022-08-22T12:02:23.399Z,31.20
2022-08-22T12:05:26.249Z,31.00
2022-08-22T12:08:46.436Z,30.90
2022-08-22T12:11:46.935Z,30.70
2022-08-22T12:14:46.586Z,30.60
2022-08-22T12:18:26.679Z,30.50
2022-08-22T12:22:05.206Z,30.40
2022-08-22T12:25:12.741Z,30.40
2022-08-22T12:28:18.360Z,30.30
2022-08-22T12:31:26.261Z,30.30
2022-08-22T12:34:22.571Z,30.20
2022-08-22T12:37:18.729Z,30.20
2022-08-22T12:40:31.008Z,30.10
2022-08-22T12:43:49.793Z,30.10
2022-08-22T12:46:55.192Z,30.00
2022-08-22T12:50:06.983Z,30.00
2022-08-22T12:53:33.098Z,29.90
2022-08-22T12:56:37.811Z,29.90
2022-08-22T12:59:34.298Z,29.70
2022-08-22T13:02:29.800Z,29.60
2022-08-22T13:05:25.087Z,29.50
2022-08-22T13:08:24.530Z,29.30
2022-08-22T13:11:22.678Z,29.20
2022-08-22T13:14:24.044Z,29.20
2022-08-22T13:17:24.409Z,29.10
2022-08-22T13:20:26.584Z,29.00
2022-08-22T13:23:24.005Z,28.90
2022-08-22T13:26:33.405Z,28.80
2022-08-22T13:29:42.885Z,28.80
2022-08-22T13:32:37.539Z,28.70
2022-08-22T13:35:45.404Z,28.70
2022-08-22T13:38:50.161Z,28.60
2022-08-22T13:41:53.740Z,28.60
2022-08-22T13:44:48.033Z,28.60
2022-08-22T13:47:49.279Z,28.60
2022-08-22T13:51:03.048Z,28.60
2022-08-22T13:54:10.905Z,28.60
2022-08-22T13:57:11.544Z,28.60
2022-08-22T14:00:11.836Z,28.60
2022-08-22T14:03:24.843Z,28.60
2022-08-22T14:06:37.171Z,28.60
2022-08-22T14:09:43.024Z,28.70
2022-08-22T14:12:50.543Z,28.70
2022-08-22T14:15:45.731Z,28.60
2022-08-22T14:18:45.555Z,28.50
2022-08-22T14:21:44.350Z,28.40
2022-08-22T14:24:45.946Z,28.20
2022-08-22T14:27:40.034Z,28.10
2022-08-22T14:30:33.261Z,28.00
2022-08-22T14:33:27.383Z,27.80
2022-08-22T14:36:21.520Z,27.70
2022-08-22T14:39:21.768Z,27.50
2022-08-22T14:42:17.819Z,27.40
2022-08-22T14:45:18.360Z,27.20
2022-08-22T14:48:31.699Z,27.10
2022-08-22T14:51:26.004Z,27.00
2022-08-22T14:54:21.412Z,26.90
2022-08-22T14:57:20.280Z,26.80
2022-08-22T15:00:13.606Z,26.60
2022-08-22T15:03:14.880Z,26.60
2022-08-22T15:06:08.434Z,26.40
2022-08-22T15:09:07.733Z,26.30
2022-08-22T15:11:58.192Z,26.20
2022-08-22T15:14:55.470Z,26.10
2022-08-22T15:17:51.126Z,26.00
2022-08-22T15:20:45.438Z,26.00
2022-08-22T15:23:46.688Z,25.90
2022-08-22T15:26:42.972Z,25.80
2022-08-22T15:29:50.978Z,25.70
2022-08-22T15:32:44.085Z,25.70
2022-08-22T15:35:38.865Z,25.60
2022-08-22T15:38:32.989Z,25.50
2022-08-22T15:41:40.523Z,25.50
2022-08-22T15:44:34.607Z,25.50
2022-08-22T15:47:32.809Z,25.40
2022-08-22T15:50:36.285Z,25.30
2022-08-22T15:53:31.296Z,25.30
2022-08-22T15:56:31.269Z,25.20
2022-08-22T15:59:53.725Z,25.20
2022-08-22T16:02:59.166Z,25.20
2022-08-22T16:05:55.635Z,25.20
2022-08-22T16:08:52.557Z,25.10
2022-08-22T16:11:43.854Z,25.10
2022-08-22T16:14:51.089Z,25.00
2022-08-22T16:17:53.387Z,24.90
2022-08-22T16:20:54.853Z,24.90
2022-08-22T16:24:34.753Z,24.90
2022-08-22T16:27:28.377Z,24.80
2022-08-22T16:30:35.079Z,24.70
2022-08-22T16:33:34.808Z,24.70
2022-08-22T16:36:46.229Z,24.70
2022-08-22T16:39:40.876Z,24.60
2022-08-22T16:42:38.315Z,24.60
2022-08-22T16:45:36.693Z,24.60
2022-08-22T16:48:36.480Z,24.50
2022-08-22T16:51:25.849Z,24.40
2022-08-22T16:54:46.331Z,24.30
2022-08-22T16:58:04.915Z,24.30
2022-08-22T17:01:09.951Z,24.20
2022-08-22T17:04:10.511Z,24.20
2022-08-22T17:07:19.180Z,24.10
2022-08-22T17:10:54.155Z,24.00
2022-08-22T17:14:01.222Z,24.00
2022-08-22T17:17:13.210Z,23.90
2022-08-22T17:20:18.290Z,23.90
2022-08-22T17:23:24.057Z,23.80
2022-08-22T17:26:25.547Z,23.80
2022-08-22T17:29:27.187Z,23.80
2022-08-22T17:32:30.143Z,23.70
2022-08-22T17:35:32.855Z,23.70
2022-08-22T17:38:35.809Z,23.60
2022-08-22T17:41:36.708Z,23.50
2022-08-22T17:44:35.151Z,23.40
2022-08-22T17:47:34.885Z,23.40
2022-08-22T17:50:36.211Z,23.40
2022-08-22T17:53:35.764Z,23.30
2022-08-22T17:56:34.076Z,23.30
2022-08-22T17:59:28.780Z,23.20
2022-08-22T18:02:26.569Z,23.10
2022-08-22T18:05:21.193Z,23.10
2022-08-22T18:11:31.508Z,23.00
2022-08-22T18:14:37.626Z,22.90
2022-08-22T18:17:35.464Z,22.90
2022-08-22T18:20:32.046Z,22.90
2022-08-22T18:23:36.029Z,22.80
2022-08-22T18:26:40.797Z,22.70
2022-08-22T18:29:41.886Z,22.70
2022-08-22T18:32:37.638Z,22.60
2022-08-22T18:35:33.792Z,22.60
2022-08-22T18:38:33.602Z,22.50
2022-08-22T18:41:33.163Z,22.40
2022-08-22T18:44:27.462Z,22.40
2022-08-22T18:47:24.538Z,22.40
2022-08-22T18:50:33.113Z,22.40
2022-08-22T18:53:38.672Z,22.30
2022-08-22T18:57:00.071Z,22.30
2022-08-22T19:00:08.513Z,22.20
2022-08-22T19:03:25.266Z,22.20
2022-08-22T19:07:10.207Z,22.20
2022-08-22T19:10:51.346Z,22.20
2022-08-22T19:14:14.337Z,22.10
2022-08-22T19:17:58.774Z,22.10
2022-08-22T19:21:43.963Z,22.10
2022-08-22T19:25:25.998Z,22.10
2022-08-22T19:28:27.086Z,22.10
2022-08-22T19:31:24.638Z,22.10
2022-08-22T19:34:22.111Z,22.00
2022-08-22T19:37:33.478Z,22.00
2022-08-22T19:40:58.221Z,22.00
2022-08-22T19:43:49.017Z,22.00
2022-08-22T19:46:42.034Z,22.00
2022-08-22T19:49:36.117Z,21.90
2022-08-22T19:52:37.467Z,21.90
2022-08-22T19:55:52.959Z,21.90
2022-08-22T19:58:57.638Z,21.80
2022-08-22T20:01:59.179Z,21.80
2022-08-22T20:05:20.323Z,21.80
2022-08-22T20:08:41.321Z,21.70
2022-08-22T20:11:42.893Z,21.80
2022-08-22T20:14:36.084Z,21.70
2022-08-22T20:17:43.864Z,21.70
2022-08-22T20:20:57.840Z,21.70
2022-08-22T20:23:51.457Z,21.70
2022-08-22T20:27:10.074Z,21.80
2022-08-22T20:30:05.615Z,21.70
2022-08-22T20:33:01.971Z,21.70
2022-08-22T20:35:55.769Z,21.70
2022-08-22T20:38:55.883Z,21.60
2022-08-22T20:41:52.791Z,21.60
2022-08-22T20:44:45.284Z,21.60
2022-08-22T20:47:49.451Z,21.60
2022-08-22T20:50:38.998Z,21.50
2022-08-22T20:53:28.667Z,21.50
2022-08-22T20:56:38.359Z,21.50
2022-08-22T20:59:41.782Z,21.50
2022-08-22T21:02:41.034Z,21.40
2022-08-22T21:05:36.410Z,21.40
2022-08-22T21:08:27.830Z,21.40
2022-08-22T21:11:41.149Z,21.40
2022-08-22T21:14:37.619Z,21.40
2022-08-22T21:17:34.300Z,21.40
2022-08-22T21:20:26.128Z,21.40
2022-08-22T21:23:17.251Z,21.40
2022-08-22T21:26:12.474Z,21.40
2022-08-22T21:29:08.204Z,21.40
2022-08-22T21:32:04.827Z,21.40
2022-08-22T21:34:55.200Z,21.40
2022-08-22T21:37:47.338Z,21.40
2022-08-22T21:40:39.602Z,21.30
2022-08-22T21:43:34.541Z,21.30
2022-08-22T21:46:30.252Z,21.30
2022-08-22T21:49:24.496Z,21.30
2022-08-22T21:52:27.877Z,21.20
2022-08-22T21:55:26.549Z,21.20
2022-08-22T21:58:36.323Z,21.20
2022-08-22T22:01:33.955Z,21.20
2022-08-22T22:04:23.460Z,21.10
2022-08-22T22:07:12.880Z,21.10
2022-08-22T22:10:09.361Z,21.10
2022-08-22T22:12:59.718Z,21.00
2022-08-22T22:15:52.140Z,21.00
2022-08-22T22:18:43.088Z,21.00
2022-08-22T22:21:32.502Z,21.00
2022-08-22T22:24:21.863Z,21.00
2022-08-22T22:27:16.411Z,21.00
2022-08-22T22:30:08.366Z,20.90
2022-08-22T22:32:57.789Z,20.90
2022-08-22T22:35:49.547Z,20.90
2022-08-22T22:38:39.568Z,20.90
2022-08-22T22:41:28.998Z,20.90
2022-08-22T22:44:18.368Z,20.90
2022-08-22T22:47:11.555Z,20.80
2022-08-22T22:50:01.003Z,20.80
2022-08-22T22:52:54.103Z,20.80
2022-08-22T22:55:43.741Z,20.80
2022-08-22T22:58:35.428Z,20.80
2022-08-22T23:01:27.600Z,20.80
2022-08-22T23:04:17.754Z,20.80
2022-08-22T23:07:09.214Z,20.80
2022-08-22T23:09:59.989Z,20.80
2022-08-22T23:12:50.988Z,20.80
2022-08-22T23:15:40.392Z,20.80
2022-08-22T23:18:31.522Z,20.70
2022-08-22T23:21:26.165Z,20.70
2022-08-22T23:24:16.235Z,20.70
2022-08-22T23:27:09.151Z,20.70
2022-08-22T23:29:58.646Z,20.70
2022-08-22T23:32:48.074Z,20.70
2022-08-22T23:35:37.422Z,20.70
2022-08-22T23:38:26.808Z,20.70
2022-08-22T23:41:19.272Z,20.70
2022-08-22T23:44:14.110Z,20.70
2022-08-22T23:47:05.582Z,20.70
2022-08-22T23:49:55.014Z,20.70
2022-08-22T23:52:44.374Z,20.70
2022-08-22T23:55:33.935Z,20.70
2022-08-22T23:58:23.647Z,20.70
